Time;durP1;ratioP1;P1;durP2;ratioP2;P2;SDS_P1;SDS_P2;PMS_P1;PMS_P2;Temp;Humidity;BMP_temperature;BMP_pressure;BME280_temperature;BME280_humidity;BME280_pressure;Samples;Min_cycle;Max_cycle;Signal;HPM_P1;HPM_P2
2021/08/20 00:01:52;;;;;;;4.40;2.43;;;;;;;18.71;45.51;101296.09;5036466;28;20616;-60
2021/08/20 00:04:17;;;;;;;3.87;2.20;;;;;;;18.68;45.39;101299.84;5053957;28;20193;-60
2021/08/20 00:06:43;;;;;;;3.90;2.10;;;;;;;18.63;45.37;101294.84;5053963;28;20210;-60
2021/08/20 00:09:09;;;;;;;4.43;2.23;;;;;;;18.59;45.65;101305.50;5053819;28;20579;-60
2021/08/20 00:11:36;;;;;;;4.07;2.20;;;;;;;18.51;45.62;101300.66;5053918;28;20188;-60
2021/08/20 00:14:03;;;;;;;4.37;2.37;;;;;;;18.09;45.22;101250.03;5073834;28;20175;-60
2021/08/20 00:16:28;;;;;;;4.50;2.20;;;;;;;18.41;45.72;101299.09;5073796;28;20648;-60
2021/08/20 00:18:53;;;;;;;5.43;2.33;;;;;;;17.48;45.95;101157.03;5055974;28;20258;-60
2021/08/20 00:21:19;;;;;;;4.00;2.17;;;;;;;18.26;45.95;101290.53;5059510;28;20254;-60
2021/08/20 00:23:44;;;;;;;3.60;2.00;;;;;;;18.27;46.29;101294.13;5053828;28;20683;-60
2021/08/20 00:26:10;;;;;;;5.13;2.33;;;;;;;18.25;47.09;101288.97;5053739;28;20229;-60
2021/08/20 00:28:35;;;;;;;4.20;2.20;;;;;;;18.20;47.07;101286.78;5053124;28;20585;-60
2021/08/20 00:31:01;;;;;;;3.73;2.07;;;;;;;18.17;47.42;101291.31;5053476;28;20176;-60
2021/08/20 00:33:27;;;;;;;4.67;2.33;;;;;;;18.08;47.18;101288.50;5053671;28;20215;-60
2021/08/20 00:35:52;;;;;;;6.20;2.40;;;;;;;17.85;46.84;101260.31;5053656;28;20173;-60
2021/08/20 00:38:17;;;;;;;4.03;2.13;;;;;;;18.07;46.80;101291.78;5053374;28;20671;-60
2021/08/20 00:40:43;;;;;;;4.70;2.27;;;;;;;18.03;46.81;101288.38;5066949;28;20196;-60
2021/08/20 00:43:10;;;;;;;5.00;2.53;;;;;;;17.95;46.90;101289.91;5073029;28;20305;-60
2021/08/20 00:45:36;;;;;;;4.60;2.20;;;;;;;17.92;46.73;101292.88;5047637;28;20189;-60
2021/08/20 00:48:02;;;;;;;6.63;2.43;;;;;;;17.92;46.91;101296.47;5053272;28;20791;-60
2021/08/20 00:50:28;;;;;;;7.33;2.30;;;;;;;17.92;46.59;101298.47;5053140;28;20578;-60
2021/08/20 00:52:53;;;;;;;4.43;2.43;;;;;;;17.72;47.92;101300.94;5052851;28;20172;-60
2021/08/20 00:55:23;;;;;;;6.70;2.43;;;;;;;17.55;48.32;101294.84;5053179;28;20266;-60
2021/08/20 00:57:49;;;;;;;5.00;2.30;;;;;;;17.39;48.73;101297.91;5052998;28;20611;-60
2021/08/20 01:00:19;;;;;;;7.97;2.73;;;;;;;17.16;48.97;101260.00;5035031;28;20279;-60
2021/08/20 01:02:46;;;;;;;10.97;2.53;;;;;;;17.44;48.86;101299.34;5053154;28;20177;-60
2021/08/20 01:05:12;;;;;;;4.13;2.50;;;;;;;17.23;49.55;101298.13;5070427;28;20541;-60
2021/08/20 01:07:38;;;;;;;7.53;2.40;;;;;;;17.10;49.54;101297.47;5072735;28;20176;-60
2021/08/20 01:10:07;;;;;;;8.73;2.63;;;;;;;17.10;49.83;101286.25;5052709;28;20200;-60
2021/08/20 01:12:35;;;;;;;6.57;2.50;;;;;;;17.00;49.84;101271.44;5052591;28;20190;-60
2021/08/20 01:15:00;;;;;;;5.33;2.47;;;;;;;16.88;49.62;101271.56;5052867;28;20176;-60
2021/08/20 01:17:26;;;;;;;6.23;2.57;;;;;;;17.17;48.46;101300.75;5052743;28;20662;-60
2021/08/20 01:19:52;;;;;;;4.07;2.13;;;;;;;17.22;49.55;101296.59;5052690;28;20176;-60
2021/08/20 01:22:17;;;;;;;3.77;2.30;;;;;;;17.03;49.32;101270.53;5035011;28;20196;-60
2021/08/20 01:24:49;;;;;;;4.80;2.60;;;;;;;16.86;49.44;101234.84;5052724;28;20188;-60
2021/08/20 01:27:16;;;;;;;5.23;2.17;;;;;;;16.55;49.82;101228.50;5052240;28;20544;-60
2021/08/20 01:29:42;;;;;;;4.47;2.23;;;;;;;16.96;49.79;101307.19;5052506;28;20207;-60
2021/08/20 01:32:07;;;;;;;4.90;2.60;;;;;;;16.95;49.89;101304.88;5052387;28;20665;-60
2021/08/20 01:34:33;;;;;;;8.00;2.70;;;;;;;16.98;50.45;101303.19;5052400;28;20579;-60
2021/08/20 01:36:58;;;;;;;5.93;2.47;;;;;;;16.63;50.58;101256.97;5052433;28;20681;-60
2021/08/20 01:39:24;;;;;;;5.17;2.50;;;;;;;16.81;50.37;101292.19;5051795;28;20183;-60
2021/08/20 01:41:49;;;;;;;5.80;2.30;;;;;;;16.76;50.86;101283.63;5072229;28;20193;-60
2021/08/20 01:44:15;;;;;;;4.67;2.43;;;;;;;16.82;51.51;101293.00;5072012;28;20229;-60
2021/08/20 01:46:40;;;;;;;5.33;2.63;;;;;;;16.77;51.24;101285.97;5072231;28;20652;-60
2021/08/20 01:49:07;;;;;;;5.37;2.77;;;;;;;16.42;51.87;101294.16;5072200;28;20629;-60
2021/08/20 01:51:33;;;;;;;5.30;2.67;;;;;;;16.46;52.15;101292.78;5071949;28;20194;-60
2021/08/20 01:54:02;;;;;;;5.40;2.80;;;;;;;16.47;52.22;101290.78;5072097;28;20256;-60
2021/08/20 01:56:31;;;;;;;6.83;2.67;;;;;;;16.33;52.16;101298.41;5064794;28;20177;-60
2021/08/20 01:58:59;;;;;;;9.13;3.20;;;;;;;16.31;52.63;101292.50;5051968;28;20204;-60
2021/08/20 02:01:25;;;;;;;8.10;3.07;;;;;;;15.95;52.33;101243.91;5051951;28;20195;-60
2021/08/20 02:03:51;;;;;;;9.53;3.57;;;;;;;15.78;52.46;101223.72;5058386;28;20741;-60
2021/08/20 02:06:18;;;;;;;9.63;3.33;;;;;;;16.09;52.63;101293.72;5071931;28;20285;-60
2021/08/20 02:08:43;;;;;;;10.73;3.70;;;;;;;16.13;52.97;101292.34;5062507;28;20176;-60
2021/08/20 02:11:09;;;;;;;5.87;3.43;;;;;;;16.15;53.16;101289.91;5051843;28;20259;-60
2021/08/20 02:13:35;;;;;;;9.37;4.07;;;;;;;16.15;53.13;101292.69;5051752;28;20187;-60
2021/08/20 02:16:00;;;;;;;12.27;4.00;;;;;;;16.16;53.14;101291.44;5051747;28;20198;-60
2021/08/20 02:18:26;;;;;;;8.67;3.47;;;;;;;16.16;52.97;101301.84;5051656;28;20193;-60
2021/08/20 02:20:52;;;;;;;10.07;3.70;;;;;;;16.17;52.88;101297.81;5051566;28;20676;-60
2021/08/20 02:23:17;;;;;;;8.50;2.77;;;;;;;16.16;52.77;101304.66;5051684;28;20184;-60
2021/08/20 02:25:43;;;;;;;5.57;3.47;;;;;;;16.06;52.83;101300.22;5051583;28;20178;-60
2021/08/20 02:28:08;;;;;;;5.57;3.40;;;;;;;16.10;53.25;101298.88;5051591;28;20234;-60
2021/08/20 02:30:34;;;;;;;6.57;3.50;;;;;;;16.10;53.11;101298.06;5051630;28;20259;-60
2021/08/20 02:33:00;;;;;;;6.27;2.90;;;;;;;16.07;52.98;101299.75;5051668;28;20647;-60
2021/08/20 02:35:26;;;;;;;7.07;3.20;;;;;;;16.04;52.66;101305.50;5051528;28;20703;-60
2021/08/20 02:37:54;;;;;;;9.43;4.10;;;;;;;16.08;52.67;101303.34;5051526;28;20182;-60
2021/08/20 02:40:20;;;;;;;9.43;3.33;;;;;;;16.09;53.18;101300.06;5051003;28;20618;-60
2021/08/20 02:42:46;;;;;;;13.03;3.70;;;;;;;15.97;53.27;101289.72;5051191;28;20202;-60
2021/08/20 02:45:12;;;;;;;10.27;3.70;;;;;;;15.95;53.23;101269.84;5051260;28;20662;-60
2021/08/20 02:47:38;;;;;;;9.60;3.73;;;;;;;16.23;53.33;101315.56;5033500;28;20195;-60
2021/08/20 02:50:04;;;;;;;8.13;3.93;;;;;;;16.25;52.84;101318.72;5051220;28;20189;-60
2021/08/20 02:52:30;;;;;;;11.07;3.70;;;;;;;16.14;53.52;101309.91;5057424;28;20181;-60
2021/08/20 02:54:55;;;;;;;8.80;4.20;;;;;;;16.20;52.65;101322.88;5058088;28;20737;-60
2021/08/20 02:57:23;;;;;;;13.67;5.07;;;;;;;16.17;53.15;101317.38;5057846;28;20181;-60
2021/08/20 02:59:49;;;;;;;18.83;5.90;;;;;;;15.99;52.30;101275.31;5058056;28;20233;-60
2021/08/20 03:02:15;;;;;;;8.67;4.80;;;;;;;16.33;52.55;101320.78;5057910;28;20178;-60
2021/08/20 03:04:41;;;;;;;9.10;4.73;;;;;;;15.55;52.29;101196.22;5057885;28;20242;-60
2021/08/20 03:07:07;;;;;;;12.87;4.90;;;;;;;16.19;52.02;101293.31;5057791;28;20600;-60
2021/08/20 03:09:32;;;;;;;12.23;5.67;;;;;;;16.22;51.96;101302.81;5057674;28;20170;-60
2021/08/20 03:11:58;;;;;;;10.63;5.30;;;;;;;16.06;51.66;101275.03;5057650;28;20185;-60
2021/08/20 03:14:23;;;;;;;9.30;5.40;;;;;;;16.28;51.63;101309.38;5057847;28;20178;-60
2021/08/20 03:16:49;;;;;;;11.87;6.37;;;;;;;16.40;51.26;101323.34;5057744;28;20653;-60
2021/08/20 03:19:15;;;;;;;9.83;5.60;;;;;;;16.35;51.23;101323.91;5057619;28;20207;-60
2021/08/20 03:21:40;;;;;;;12.17;6.20;;;;;;;16.39;50.84;101329.41;5057672;28;20572;-60
2021/08/20 03:24:06;;;;;;;9.47;6.00;;;;;;;16.43;51.21;101335.63;5057782;28;20183;-60
2021/08/20 03:26:31;;;;;;;13.30;5.43;;;;;;;16.46;51.79;101331.94;5057731;28;20190;-60
2021/08/20 03:28:56;;;;;;;11.27;4.50;;;;;;;16.40;51.74;101331.72;5039829;28;20198;-60
2021/08/20 03:31:22;;;;;;;15.30;6.03;;;;;;;16.42;51.47;101333.31;5057525;28;20183;-60
2021/08/20 03:33:47;;;;;;;13.10;6.43;;;;;;;16.40;51.60;101336.56;5057589;28;20278;-60
2021/08/20 03:36:14;;;;;;;10.77;6.20;;;;;;;16.38;51.56;101350.97;5057708;28;20185;-60
2021/08/20 03:38:39;;;;;;;11.27;6.70;;;;;;;16.33;51.96;101340.38;5057531;28;20201;-60
2021/08/20 03:41:05;;;;;;;8.60;6.20;;;;;;;16.31;51.85;101339.25;5057470;28;20592;-60
2021/08/20 03:43:31;;;;;;;8.97;5.97;;;;;;;16.37;51.90;101343.03;5057374;28;20725;-60
2021/08/20 03:45:56;;;;;;;11.60;6.03;;;;;;;16.40;51.94;101337.34;5057626;28;20727;-60
2021/08/20 03:48:22;;;;;;;11.47;7.20;;;;;;;16.35;52.13;101351.09;5057477;28;20171;-60
2021/08/20 03:50:47;;;;;;;11.43;6.27;;;;;;;16.37;52.14;101357.81;5057575;28;20181;-60
2021/08/20 03:53:13;;;;;;;11.03;6.77;;;;;;;16.29;52.09;101356.50;5057373;28;20556;-60
2021/08/20 03:55:38;;;;;;;14.43;7.23;;;;;;;16.06;52.57;101358.91;5057408;28;20204;-60
2021/08/20 03:58:04;;;;;;;14.13;7.10;;;;;;;16.00;53.02;101358.72;5057480;28;20268;-60
2021/08/20 04:00:29;;;;;;;14.13;7.70;;;;;;;15.44;53.17;101290.78;5057408;28;20625;-60
2021/08/20 04:02:55;;;;;;;13.57;6.53;;;;;;;15.90;54.14;101365.47;5055290;28;20184;-60
2021/08/20 04:05:22;;;;;;;11.87;7.87;;;;;;;15.61;53.07;101324.94;5054263;28;20194;-60
2021/08/20 04:07:47;;;;;;;13.37;7.23;;;;;;;16.09;53.92;101375.56;5054151;28;20565;-60
2021/08/20 04:10:13;;;;;;;11.07;7.27;;;;;;;16.03;53.11;101382.97;5053945;28;20256;-60
2021/08/20 04:12:39;;;;;;;15.87;7.47;;;;;;;16.16;53.08;101386.53;5054379;28;20178;-60
2021/08/20 04:15:05;;;;;;;11.93;7.30;;;;;;;16.27;53.62;101400.91;5053988;28;20188;-60
2021/08/20 04:17:30;;;;;;;14.90;7.60;;;;;;;16.03;53.56;101326.28;5054065;28;20614;-60
2021/08/20 04:19:56;;;;;;;15.47;7.43;;;;;;;16.52;53.25;101400.84;5053762;28;20212;-60
2021/08/20 04:22:22;;;;;;;14.40;7.50;;;;;;;16.60;52.44;101406.97;5053778;28;20179;-60
2021/08/20 04:24:47;;;;;;;13.87;7.80;;;;;;;16.37;52.68;101363.41;5053875;28;20533;-60
2021/08/20 04:27:13;;;;;;;17.47;8.30;;;;;;;16.76;52.23;101406.78;5048444;28;20206;-60
2021/08/20 04:29:38;;;;;;;13.50;7.83;;;;;;;16.80;51.40;101404.66;5053085;28;20170;-60
2021/08/20 04:32:04;;;;;;;13.60;8.43;;;;;;;16.88;52.11;101405.16;5053420;28;20557;-60
2021/08/20 04:34:29;;;;;;;12.53;7.83;;;;;;;17.01;51.67;101412.25;5053175;28;20557;-60
2021/08/20 04:36:55;;;;;;;13.30;8.07;;;;;;;16.98;51.90;101413.16;5059406;28;20194;-60
2021/08/20 04:39:20;;;;;;;15.60;9.10;;;;;;;17.15;51.61;101417.28;5069853;28;20587;-60
2021/08/20 04:41:46;;;;;;;14.07;8.60;;;;;;;16.96;51.12;101427.59;5073268;28;20179;-60
2021/08/20 04:44:11;;;;;;;12.23;8.10;;;;;;;16.88;51.37;101429.13;5068034;28;20688;-60
2021/08/20 04:46:39;;;;;;;14.60;7.70;;;;;;;16.91;51.96;101439.38;5054357;28;20562;-60
2021/08/20 04:49:08;;;;;;;19.17;8.50;;;;;;;16.87;51.84;101440.75;5073401;28;20267;-60
2021/08/20 04:51:34;;;;;;;13.93;8.13;;;;;;;16.96;51.72;101438.03;5067119;28;20584;-60
2021/08/20 04:54:00;;;;;;;13.13;8.87;;;;;;;16.70;51.59;101391.81;5073003;28;20179;-60
2021/08/20 04:56:26;;;;;;;14.23;8.73;;;;;;;16.89;52.02;101421.47;5065886;28;20184;-60
2021/08/20 04:58:52;;;;;;;15.23;8.47;;;;;;;17.25;52.29;101439.31;5034596;28;20622;-60
2021/08/20 05:01:18;;;;;;;14.33;8.57;;;;;;;17.35;51.42;101452.13;5052853;28;20183;-60
2021/08/20 05:03:44;;;;;;;17.53;9.00;;;;;;;17.17;51.90;101443.59;5052970;28;20649;-60
2021/08/20 05:06:12;;;;;;;15.60;9.00;;;;;;;17.23;52.29;101439.00;5052825;28;20187;-60
2021/08/20 05:08:38;;;;;;;14.97;9.03;;;;;;;17.27;52.66;101450.06;5052307;28;20207;-60
2021/08/20 05:11:04;;;;;;;16.40;8.80;;;;;;;17.45;52.99;101443.81;5052669;28;20208;-60
2021/08/20 05:13:30;;;;;;;14.33;8.83;;;;;;;17.53;53.34;101445.84;5052573;28;20183;-60
2021/08/20 05:15:55;;;;;;;20.93;9.83;;;;;;;17.54;53.07;101439.00;5051747;28;20655;-60
2021/08/20 05:18:21;;;;;;;15.80;10.23;;;;;;;17.71;52.39;101447.97;5052236;28;20240;-60
2021/08/20 05:20:46;;;;;;;16.40;9.83;;;;;;;17.73;52.31;101437.06;5052288;28;20208;-60
2021/08/20 05:23:13;;;;;;;16.20;9.80;;;;;;;17.82;52.37;101443.50;5052386;28;20223;-60
2021/08/20 05:25:39;;;;;;;16.90;8.57;;;;;;;17.98;51.72;101442.44;5052554;28;20549;-60
2021/08/20 05:28:05;;;;;;;15.37;8.83;;;;;;;17.81;51.75;101399.09;5065095;28;20189;-60
2021/08/20 05:30:31;;;;;;;13.03;7.63;;;;;;;18.15;51.37;101441.69;5072291;28;20179;-60
2021/08/20 05:32:57;;;;;;;14.43;8.30;;;;;;;18.02;52.02;101423.44;5060949;28;20195;-60
2021/08/20 05:35:23;;;;;;;11.80;7.37;;;;;;;18.39;50.68;101439.13;5052293;28;20189;-60
2021/08/20 05:37:49;;;;;;;10.10;6.83;;;;;;;18.47;51.11;101446.75;5051898;28;20585;-60
2021/08/20 05:40:15;;;;;;;10.73;6.40;;;;;;;18.60;50.85;101449.41;5051969;28;20204;-60
2021/08/20 05:42:41;;;;;;;11.13;6.60;;;;;;;18.34;50.33;101395.63;5052180;28;20186;-60
2021/08/20 05:45:08;;;;;;;9.43;6.07;;;;;;;18.71;50.21;101444.91;5052107;28;20168;-60
2021/08/20 05:47:33;;;;;;;13.83;7.03;;;;;;;18.81;49.82;101443.66;5051638;28;20188;-60
2021/08/20 05:49:59;;;;;;;8.57;6.20;;;;;;;18.47;50.72;101385.00;5052121;28;20174;-60
2021/08/20 05:52:25;;;;;;;9.77;5.30;;;;;;;19.04;49.87;101440.16;5051819;28;20558;-60
2021/08/20 05:54:50;;;;;;;8.40;5.03;;;;;;;19.20;48.90;101441.88;5051829;28;20381;-60
2021/08/20 05:57:15;;;;;;;6.63;4.40;;;;;;;19.25;48.54;101439.22;5065323;28;20184;-60
2021/08/20 05:59:41;;;;;;;8.13;5.00;;;;;;;19.10;49.09;101403.81;5071697;28;20710;-60
2021/08/20 06:02:07;;;;;;;10.90;5.00;;;;;;;19.19;49.38;101390.50;5071562;28;20176;-60
2021/08/20 06:04:32;;;;;;;11.47;4.47;;;;;;;19.66;49.64;101437.69;5071504;28;20185;-60
2021/08/20 06:06:58;;;;;;;10.53;4.40;;;;;;;19.73;48.81;101440.16;5050608;28;20567;-60
2021/08/20 06:09:23;;;;;;;8.03;4.60;;;;;;;19.80;49.56;101437.78;5051436;28;20180;-60
2021/08/20 06:11:49;;;;;;;7.40;4.70;;;;;;;19.90;48.98;101428.03;5051503;28;20175;-60
2021/08/20 06:14:14;;;;;;;6.47;4.20;;;;;;;20.06;48.47;101440.94;5051301;28;20203;-60
2021/08/20 06:16:40;;;;;;;11.47;4.57;;;;;;;20.17;49.13;101444.78;5051421;28;20184;-60
2021/08/20 06:19:05;;;;;;;6.33;3.83;;;;;;;20.26;47.74;101450.34;5071075;28;20304;-60
2021/08/20 06:21:31;;;;;;;6.63;3.90;;;;;;;20.32;48.04;101442.81;5055284;28;20184;-60
2021/08/20 06:23:56;;;;;;;9.30;4.00;;;;;;;20.20;47.35;101423.34;5050965;28;20176;-60
2021/08/20 06:26:22;;;;;;;6.53;4.30;;;;;;;20.54;46.71;101443.28;5050467;28;20622;-60
2021/08/20 06:28:47;;;;;;;6.90;3.70;;;;;;;20.60;46.15;101438.53;5065193;28;20193;-60
2021/08/20 06:31:13;;;;;;;6.10;3.80;;;;;;;20.65;46.10;101443.50;5071262;28;20682;-60
2021/08/20 06:33:38;;;;;;;7.17;4.30;;;;;;;20.73;45.24;101432.63;5054202;28;20207;-60
2021/08/20 06:36:04;;;;;;;7.50;4.00;;;;;;;20.76;45.69;101440.91;5051361;28;20645;-60
2021/08/20 06:38:30;;;;;;;8.23;3.90;;;;;;;20.66;45.86;101408.44;5050791;28;20254;-60
2021/08/20 06:40:56;;;;;;;6.33;3.63;;;;;;;20.93;46.72;101430.75;5051203;28;20562;-60
2021/08/20 06:43:21;;;;;;;5.20;3.47;;;;;;;20.68;45.77;101372.09;5033077;28;20243;-60
2021/08/20 06:45:47;;;;;;;5.53;3.93;;;;;;;21.17;46.31;101439.91;5051010;28;20184;-60
2021/08/20 06:48:15;;;;;;;6.30;4.00;;;;;;;21.23;46.44;101425.91;5050881;28;20558;-60
2021/08/20 06:50:41;;;;;;;9.67;4.10;;;;;;;21.36;46.00;101437.66;5050815;28;20180;-60
2021/08/20 06:53:07;;;;;;;6.23;3.50;;;;;;;21.42;46.08;101432.88;5050910;28;20176;-60
2021/08/20 06:55:33;;;;;;;5.97;3.60;;;;;;;21.22;45.43;101391.31;5051092;28;20181;-60
2021/08/20 06:57:59;;;;;;;5.37;3.60;;;;;;;21.36;45.01;101406.66;5050811;28;20191;-60
2021/08/20 07:00:24;;;;;;;6.00;3.47;;;;;;;21.66;45.58;101427.91;5070615;28;20207;-60
2021/08/20 07:02:50;;;;;;;6.57;3.40;;;;;;;21.79;45.65;101434.81;5070646;28;20184;-60
2021/08/20 07:05:16;;;;;;;6.77;3.77;;;;;;;21.91;44.97;101441.41;5070549;28;20245;-60
2021/08/20 07:07:43;;;;;;;5.30;3.53;;;;;;;21.63;44.86;101389.38;5069671;28;20258;-60
2021/08/20 07:10:16;;;;;;;7.53;3.60;;;;;;;21.91;44.38;101413.16;5050462;28;20554;-60
2021/08/20 07:12:43;;;;;;;7.47;3.87;;;;;;;21.87;44.81;101404.91;5051295;28;20177;-60
2021/08/20 07:15:10;;;;;;;8.53;3.83;;;;;;;22.24;43.91;101434.16;5050772;28;20680;-60
2021/08/20 07:17:36;;;;;;;5.73;3.40;;;;;;;22.22;44.38;101419.75;5069349;28;20684;-60
2021/08/20 07:20:03;;;;;;;6.13;3.30;;;;;;;22.44;43.99;101431.38;5044388;28;20215;-60
2021/08/20 07:22:29;;;;;;;5.23;3.30;;;;;;;22.18;43.80;101379.69;5069690;28;20249;-60
2021/08/20 07:24:54;;;;;;;7.70;3.77;;;;;;;22.74;43.50;101451.75;5070732;28;20183;-60
2021/08/20 07:27:20;;;;;;;8.93;3.60;;;;;;;22.78;43.28;101449.50;5068124;28;20176;-60
2021/08/20 07:29:46;;;;;;;6.03;3.40;;;;;;;22.95;43.06;101445.56;5050437;28;20168;-60
2021/08/20 07:32:11;;;;;;;6.23;3.67;;;;;;;23.09;42.72;101450.31;5050299;28;20550;-60
2021/08/20 07:34:37;;;;;;;6.40;3.70;;;;;;;23.21;42.18;101460.53;5050490;28;20180;-60
2021/08/20 07:37:03;;;;;;;5.43;3.30;;;;;;;23.32;41.58;101454.97;5052505;28;20188;-60
2021/08/20 07:39:30;;;;;;;6.63;3.43;;;;;;;23.37;41.13;101450.63;5073398;28;20257;-60
2021/08/20 07:41:56;;;;;;;8.87;3.47;;;;;;;23.25;40.77;101426.34;5074189;28;20203;-60
2021/08/20 07:44:22;;;;;;;8.87;3.70;;;;;;;23.40;41.47;101449.63;5073555;28;20223;-60
2021/08/20 07:46:48;;;;;;;6.17;3.50;;;;;;;23.50;40.90;101453.84;5073828;28;20180;-60
2021/08/20 07:49:13;;;;;;;6.80;3.07;;;;;;;23.35;40.36;101394.56;5073859;28;20172;-60
2021/08/20 07:51:39;;;;;;;6.87;3.70;;;;;;;23.78;40.30;101435.78;5068792;28;20199;-60
2021/08/20 07:54:05;;;;;;;8.50;3.83;;;;;;;23.93;40.95;101442.09;5054314;28;20765;-60
2021/08/20 07:56:30;;;;;;;6.37;3.40;;;;;;;23.69;40.24;101402.00;5053778;28;20207;-60
2021/08/20 07:58:56;;;;;;;6.90;3.43;;;;;;;23.59;40.66;101380.84;5071349;28;20226;-60
2021/08/20 08:01:22;;;;;;;5.30;3.57;;;;;;;24.20;39.81;101447.13;5073637;28;20233;-60
2021/08/20 08:03:48;;;;;;;6.53;3.57;;;;;;;24.27;39.53;101441.00;5067749;28;20184;-60
2021/08/20 08:06:13;;;;;;;5.27;3.43;;;;;;;24.31;40.04;101446.44;5035655;28;20263;-60
2021/08/20 08:08:40;;;;;;;10.20;3.80;;;;;;;24.44;38.91;101444.69;5053086;28;20195;-60
2021/08/20 08:11:06;;;;;;;5.13;3.83;;;;;;;24.52;39.11;101440.06;5053391;28;20214;-60
2021/08/20 08:13:31;;;;;;;6.90;3.77;;;;;;;24.69;39.65;101440.94;5053379;28;20184;-60
2021/08/20 08:15:57;;;;;;;5.43;3.70;;;;;;;24.69;38.93;101428.81;5053459;28;20184;-60
2021/08/20 08:18:22;;;;;;;6.17;4.20;;;;;;;24.82;38.97;101441.22;5066197;28;20183;-60
2021/08/20 08:20:48;;;;;;;6.13;3.60;;;;;;;24.73;38.68;101415.19;5063315;28;20682;-60
2021/08/20 08:23:13;;;;;;;4.90;3.70;;;;;;;25.06;38.85;101430.22;5052871;28;20180;-60
2021/08/20 08:25:39;;;;;;;5.13;3.63;;;;;;;25.30;38.40;101452.44;5053440;28;20188;-60
2021/08/20 08:28:05;;;;;;;5.07;3.00;;;;;;;25.25;37.71;101450.34;5052886;28;20329;-60
2021/08/20 08:30:39;;;;;;;4.50;3.63;;;;;;;25.24;37.49;101443.13;5053151;28;20650;-60
2021/08/20 08:33:05;;;;;;;6.83;3.87;;;;;;;25.27;37.47;101439.28;5052474;28;20579;-60
2021/08/20 08:35:31;;;;;;;7.97;3.87;;;;;;;25.40;37.73;101433.88;5073506;28;20175;-60
2021/08/20 08:38:13;;;;;;;8.30;3.80;;;;;;;25.60;37.19;101437.25;5072979;28;20562;-60
2021/08/20 08:40:43;;;;;;;12.57;3.90;;;;;;;25.75;36.98;101439.78;5072909;28;20207;-60
2021/08/20 08:43:09;;;;;;;5.47;3.37;;;;;;;25.77;36.27;101440.03;5072877;28;20235;-60
2021/08/20 08:45:35;;;;;;;6.10;3.70;;;;;;;25.72;36.21;101440.81;5072923;28;20187;-60
2021/08/20 08:48:06;;;;;;;7.43;3.57;;;;;;;25.88;37.05;101440.81;5072638;28;20184;-60
2021/08/20 08:50:33;;;;;;;8.83;3.60;;;;;;;25.95;36.38;101416.81;5072382;28;20207;-60
2021/08/20 08:53:00;;;;;;;8.10;3.93;;;;;;;25.99;36.20;101425.84;5056766;28;20191;-60
2021/08/20 08:55:25;;;;;;;7.03;3.97;;;;;;;26.19;37.40;101414.94;5072958;28;20668;-60
2021/08/20 08:57:51;;;;;;;11.07;4.33;;;;;;;26.19;37.97;101416.97;5054000;28;20184;-60
2021/08/20 09:00:38;;;;;;;10.50;3.93;;;;;;;26.46;36.22;101419.72;5052633;28;20201;-60
2021/08/20 09:03:04;;;;;;;7.47;4.17;;;;;;;26.71;35.52;101406.47;5047120;28;20596;-60
2021/08/20 09:05:58;;;;;;;5.57;3.57;;;;;;;26.74;36.58;101406.19;5052708;28;20203;-60
2021/08/20 09:08:26;;;;;;;8.67;3.90;;;;;;;26.84;35.71;101418.00;5063710;28;20196;-60
2021/08/20 09:10:57;;;;;;;8.40;3.80;;;;;;;26.98;33.97;101402.66;5072801;28;20183;-60
2021/08/20 09:13:23;;;;;;;4.50;3.80;;;;;;;26.80;34.02;101377.69;5072337;28;20179;-60
2021/08/20 09:16:08;;;;;;;7.13;3.90;;;;;;;27.06;34.06;101395.88;5066377;28;20191;-60
2021/08/20 09:18:34;;;;;;;7.03;3.93;;;;;;;26.91;35.26;101383.31;5052136;28;20654;-60
2021/08/20 09:21:00;;;;;;;9.00;3.70;;;;;;;27.00;34.54;101395.16;5052284;28;20295;-60
2021/08/20 09:23:27;;;;;;;8.47;3.90;;;;;;;27.03;33.04;101399.00;5052190;28;20271;-60
2021/08/20 09:25:54;;;;;;;6.37;3.17;;;;;;;27.11;34.50;101388.59;5052409;28;20703;-60
2021/08/20 09:28:24;;;;;;;6.77;3.57;;;;;;;27.36;34.20;101396.69;5051978;28;20176;-60
2021/08/20 09:30:56;;;;;;;8.17;3.90;;;;;;;27.48;35.14;101389.59;5052553;28;20176;-60
2021/08/20 09:33:23;;;;;;;6.63;3.50;;;;;;;27.64;34.15;101371.56;5060664;28;20183;-60
2021/08/20 09:36:03;;;;;;;5.27;3.60;;;;;;;27.92;33.00;101382.69;5072031;28;20771;-60
2021/08/20 09:38:31;;;;;;;6.47;3.33;;;;;;;28.20;32.63;101378.22;5071872;28;20195;-60
2021/08/20 09:41:00;;;;;;;5.83;3.30;;;;;;;28.26;32.41;101390.31;5056639;28;20196;-60
2021/08/20 09:43:31;;;;;;;6.07;3.50;;;;;;;28.44;32.67;101385.97;5051820;28;20220;-60
2021/08/20 09:45:58;;;;;;;5.70;3.10;;;;;;;28.53;31.83;101386.38;5059230;28;20240;-60
2021/08/20 09:48:45;;;;;;;4.70;3.00;;;;;;;28.62;31.36;101388.81;5071885;28;20661;-60
2021/08/20 09:51:30;;;;;;;4.33;3.20;;;;;;;28.69;31.17;101373.19;5070675;28;20184;-60
2021/08/20 09:54:04;;;;;;;6.43;3.37;;;;;;;28.91;30.71;101376.47;5051842;28;20180;-60
2021/08/20 09:56:30;;;;;;;4.57;3.22;;;;;;;29.19;30.18;101381.78;5051961;28;20199;-60
2021/08/20 09:58:59;;;;;;;5.32;3.00;;;;;;;29.30;29.63;101378.72;5051372;28;20176;-60
2021/08/20 10:01:28;;;;;;;5.40;3.38;;;;;;;29.08;29.58;101379.09;5050876;28;20179;-60
2021/08/20 10:03:57;;;;;;;7.10;3.40;;;;;;;29.06;29.16;101367.44;5051433;28;20180;-60
2021/08/20 10:06:24;;;;;;;4.63;3.15;;;;;;;29.09;29.44;101338.63;5051571;28;20241;-60
2021/08/20 10:08:50;;;;;;;5.57;3.45;;;;;;;29.67;28.85;101375.75;5056386;28;20257;-60
2021/08/20 10:11:17;;;;;;;5.63;3.28;;;;;;;29.68;28.34;101378.06;5033657;28;20571;-61
2021/08/20 10:13:45;;;;;;;5.68;3.00;;;;;;;29.62;28.43;101380.25;5051650;28;20185;-60
2021/08/20 10:16:12;;;;;;;5.68;3.10;;;;;;;29.77;28.65;101380.50;5051420;28;20682;-60
2021/08/20 10:18:38;;;;;;;7.13;3.28;;;;;;;29.53;28.25;101365.63;5051063;28;20263;-60
2021/08/20 10:21:04;;;;;;;4.20;3.03;;;;;;;29.72;28.01;101349.94;5051526;28;20263;-60
2021/08/20 10:23:31;;;;;;;6.13;3.00;;;;;;;30.21;27.90;101356.78;5051421;28;20716;-60
2021/08/20 10:25:56;;;;;;;6.25;2.90;;;;;;;30.50;27.52;101354.84;5051535;28;20559;-61
2021/08/20 10:28:23;;;;;;;5.65;2.85;;;;;;;30.42;26.88;101311.09;5052817;28;20186;-61
2021/08/20 10:30:52;;;;;;;6.15;2.95;;;;;;;30.77;25.64;101357.09;5071636;28;20172;-61
2021/08/20 10:33:33;;;;;;;5.35;3.05;;;;;;;30.72;26.15;101354.38;5071384;28;20171;-61
2021/08/20 10:36:02;;;;;;;4.78;2.90;;;;;;;30.81;25.68;101340.34;5071188;28;20221;-61
2021/08/20 10:38:53;;;;;;;6.50;2.72;;;;;;;31.01;25.70;101338.84;5070712;28;20183;-61
2021/08/20 10:41:23;;;;;;;5.07;2.92;;;;;;;31.24;25.09;101336.97;5067964;28;20289;-61
2021/08/20 10:43:50;;;;;;;5.60;2.72;;;;;;;31.11;24.04;101331.31;5057908;28;20228;-61
2021/08/20 10:46:30;;;;;;;3.30;2.60;;;;;;;31.08;23.04;101329.53;5033171;28;20176;-61
2021/08/20 10:49:11;;;;;;;3.05;2.30;;;;;;;31.31;21.70;101334.16;5050603;28;20653;-61
2021/08/20 10:51:49;;;;;;;3.30;2.50;;;;;;;31.57;21.90;101328.25;5032859;28;20245;-61
2021/08/20 10:54:41;;;;;;;5.32;2.80;;;;;;;31.67;21.71;101311.31;5050820;28;20187;-61
2021/08/20 10:57:36;;;;;;;5.78;3.15;;;;;;;31.71;21.88;101335.44;5050417;28;20238;-61
2021/08/20 11:00:04;;;;;;;6.50;3.20;;;;;;;31.69;21.39;101323.75;5050475;28;20283;-61
2021/08/20 11:02:29;;;;;;;4.88;2.72;;;;;;;31.34;21.62;101323.69;5050494;28;20183;-61
2021/08/20 11:05:09;;;;;;;4.90;3.03;;;;;;;30.99;22.66;101313.63;5050402;28;20267;-61
2021/08/20 11:07:41;;;;;;;4.90;2.72;;;;;;;31.08;22.56;101318.09;5054771;28;20242;-61
2021/08/20 11:10:10;;;;;;;4.28;2.72;;;;;;;31.11;23.06;101314.13;5070705;28;20263;-61
2021/08/20 11:12:47;;;;;;;6.55;2.88;;;;;;;31.43;22.73;101314.59;5073104;28;20258;-61
2021/08/20 11:15:22;;;;;;;4.90;2.85;;;;;;;31.72;22.78;101305.44;5074711;28;20164;-61
2021/08/20 11:17:55;;;;;;;5.70;2.95;;;;;;;31.90;22.43;101312.25;5074399;28;20205;-61
2021/08/20 11:20:23;;;;;;;4.18;2.70;;;;;;;32.17;22.26;101302.06;5068040;28;20291;-61
2021/08/20 11:23:10;;;;;;;4.53;2.50;;;;;;;32.14;21.40;101298.22;5074376;28;20261;-61